Time;durP1;ratioP1;P1;durP2;ratioP2;P2;SDS_P1;SDS_P2;PMS_P1;PMS_P2;Temp;Humidity;BMP_temperature;BMP_pressure;BME280_temperature;BME280_humidity;BME280_pressure;Samples;Min_cycle;Max_cycle;Signal;HPM_P1;HPM_P2
2022/09/30 00:01:53;;;;;;;0.40;0.40;;;;;;;15.34;86.88;98377.66;4262198;33;34577;-82
2022/09/30 00:04:23;;;;;;;0.70;0.70;;;;;;;15.30;87.21;98378.75;4262056;33;34272;-82
2022/09/30 00:06:52;;;;;;;0.70;0.70;;;;;;;15.06;88.11;98387.72;4262119;33;34095;-81
2022/09/30 00:09:21;;;;;;;0.70;0.70;;;;;;;15.20;87.59;98387.09;4249340;33;35888;-76
2022/09/30 00:11:50;;;;;;;3.20;2.37;;;;;;;15.29;87.18;98384.87;4249420;33;34328;-81
2022/09/30 00:14:20;;;;;;;1.70;1.60;;;;;;;15.00;89.01;98380.97;4262032;33;33392;-78
2022/09/30 00:16:49;;;;;;;2.50;1.85;;;;;;;15.72;84.84;98374.19;4249369;33;33218;-81
2022/09/30 00:19:16;;;;;;;1.25;1.15;;;;;;;15.62;85.09;98376.41;4249267;33;35822;-76
2022/09/30 00:21:44;;;;;;;0.88;0.88;;;;;;;15.38;86.86;98372.28;4261928;33;34537;-79
2022/09/30 00:24:12;;;;;;;0.52;0.52;;;;;;;15.25;86.76;98378.09;4262120;33;33322;-80
2022/09/30 00:26:40;;;;;;;0.62;0.62;;;;;;;15.08;87.81;98380.63;4262132;33;34619;-80
2022/09/30 00:29:09;;;;;;;1.02;1.02;;;;;;;15.30;86.42;98370.00;4261920;33;35206;-79
2022/09/30 00:31:37;;;;;;;0.70;0.70;;;;;;;15.31;86.56;98366.47;4249233;33;35228;-79
2022/09/30 00:34:05;;;;;;;0.90;0.90;;;;;;;15.26;86.87;98366.66;4261818;33;33586;-76
2022/09/30 00:36:48;;;;;;;3.80;1.42;;;;;;;15.36;86.95;98360.09;4261755;33;34094;-79
2022/09/30 00:39:22;;;;;;;0.90;0.90;;;;;;;15.25;87.31;98357.09;4249101;33;35065;-77
2022/09/30 00:41:56;;;;;;;1.92;1.40;;;;;;;15.34;86.37;98350.59;4261837;33;35199;-79
2022/09/30 00:44:52;;;;;;;1.12;1.02;;;;;;;15.41;86.75;98364.28;4261944;33;33578;-79
2022/09/30 00:47:28;;;;;;;1.17;1.00;;;;;;;15.21;88.36;98360.78;4248905;33;33014;-79
2022/09/30 00:50:21;;;;;;;1.02;1.02;;;;;;;15.28;87.77;98356.09;4249048;33;35756;-76
2022/09/30 00:53:01;;;;;;;0.50;0.50;;;;;;;15.13;88.28;98358.50;4257872;33;34220;-75
2022/09/30 00:55:47;;;;;;;0.43;0.40;;;;;;;15.14;88.97;98351.47;4261603;33;33959;-76
2022/09/30 00:58:24;;;;;;;0.43;0.43;;;;;;;15.11;89.02;98343.78;4261881;33;34556;-79
2022/09/30 01:00:52;;;;;;;0.50;0.50;;;;;;;15.33;87.88;98349.72;4261861;33;35061;-79
2022/09/30 01:03:21;;;;;;;0.93;0.93;;;;;;;15.46;86.98;98346.53;4261798;33;34107;-78
2022/09/30 01:05:50;;;;;;;0.40;0.40;;;;;;;15.48;86.96;98352.59;4248943;33;33418;-79
2022/09/30 01:08:19;;;;;;;0.70;0.70;;;;;;;15.87;84.01;98351.66;4248907;33;34831;-77
2022/09/30 01:10:47;;;;;;;1.42;1.35;;;;;;;15.92;83.76;98352.28;4248879;33;36048;-75
2022/09/30 01:13:16;;;;;;;1.15;0.52;;;;;;;15.51;85.21;98358.53;4261620;33;35131;-76
2022/09/30 01:15:52;;;;;;;0.50;0.50;;;;;;;15.36;86.91;98351.38;4249045;33;34182;-79
2022/09/30 01:18:28;;;;;;;0.60;0.60;;;;;;;15.29;87.30;98350.78;4261921;33;34723;-79
2022/09/30 01:21:08;;;;;;;0.75;0.75;;;;;;;15.12;88.35;98356.81;4248912;33;35137;-75
2022/09/30 01:23:51;;;;;;;0.37;0.37;;;;;;;15.33;87.38;98362.84;4261594;33;34559;-76
2022/09/30 01:26:22;;;;;;;0.30;0.30;;;;;;;15.62;86.46;98360.66;4248829;33;33838;-79
2022/09/30 01:28:59;;;;;;;0.75;0.62;;;;;;;15.72;84.36;98329.56;4261560;33;34196;-75
2022/09/30 01:31:42;;;;;;;0.50;0.50;;;;;;;15.45;86.21;98332.56;4261457;33;35151;-75
2022/09/30 01:34:25;;;;;;;0.62;0.62;;;;;;;15.45;86.29;98347.47;4261615;33;34063;-79
2022/09/30 01:36:57;;;;;;;0.35;0.35;;;;;;;15.19;88.00;98361.78;4261570;33;33427;-79
2022/09/30 01:39:36;;;;;;;0.40;0.40;;;;;;;15.36;86.85;98365.31;4261452;33;34600;-78
2022/09/30 01:42:53;;;;;;;0.20;0.20;;;;;;;15.49;85.99;98351.66;4261508;33;35112;-78
2022/09/30 01:45:37;;;;;;;0.30;0.30;;;;;;;15.52;84.68;98349.72;4234441;33;35126;-81
2022/09/30 01:48:22;;;;;;;0.22;0.22;;;;;;;15.77;83.48;98337.25;4248711;33;33427;-83
2022/09/30 01:50:56;;;;;;;0.32;0.32;;;;;;;15.45;85.25;98335.19;4261465;33;33843;-82
2022/09/30 01:53:34;;;;;;;0.30;0.30;;;;;;;15.60;84.51;98325.78;4248379;33;34831;-85
2022/09/30 01:56:21;;;;;;;0.40;0.40;;;;;;;15.17;86.52;98320.72;4248487;33;34585;-84
2022/09/30 01:58:55;;;;;;;1.15;1.12;;;;;;;15.44;85.75;98327.41;4261182;33;34374;-80
2022/09/30 02:01:30;;;;;;;0.30;0.30;;;;;;;15.42;85.90;98329.25;4261335;33;34078;-84
2022/09/30 02:04:04;;;;;;;0.70;0.70;;;;;;;15.38;85.99;98325.06;4248618;33;35768;-83
2022/09/30 02:06:36;;;;;;;1.10;1.10;;;;;;;15.39;86.31;98335.50;4248013;33;34326;-76
2022/09/30 02:09:08;;;;;;;0.43;0.43;;;;;;;15.15;87.96;98329.59;4248101;33;34132;-83
2022/09/30 02:11:37;;;;;;;0.60;0.60;;;;;;;14.98;89.90;98319.88;4261174;33;33897;-79
2022/09/30 02:14:38;;;;;;;0.60;0.60;;;;;;;15.30;87.37;98318.41;4248385;33;35023;-83
2022/09/30 02:17:42;;;;;;;0.62;0.62;;;;;;;14.88;90.27;98322.06;4261046;33;34506;-77
2022/09/30 02:20:15;;;;;;;0.40;0.40;;;;;;;15.35;88.49;98331.28;4248643;33;33726;-82
2022/09/30 02:22:45;;;;;;;1.30;1.20;;;;;;;15.21;88.48;98349.44;4248518;33;34619;-77
2022/09/30 02:25:19;;;;;;;0.57;0.57;;;;;;;15.01;90.20;98350.34;4248238;33;35078;-77
2022/09/30 02:27:51;;;;;;;0.62;0.62;;;;;;;15.15;89.98;98358.44;4248274;33;34451;-76
2022/09/30 02:30:19;;;;;;;1.75;1.65;;;;;;;15.45;87.86;98347.47;4248292;33;34356;-77
2022/09/30 02:32:54;;;;;;;0.45;0.45;;;;;;;15.68;87.54;98349.84;4261129;33;34869;-77
2022/09/30 02:35:29;;;;;;;0.40;0.40;;;;;;;15.57;87.35;98336.41;4248280;33;35085;-80
2022/09/30 02:38:02;;;;;;;0.88;0.77;;;;;;;15.70;87.15;98324.37;4248016;33;34409;-77
2022/09/30 02:40:38;;;;;;;0.65;0.65;;;;;;;15.33;89.11;98307.75;4261090;33;33334;-81
2022/09/30 02:43:07;;;;;;;0.70;0.68;;;;;;;15.79;86.93;98289.00;4248130;33;34064;-77
2022/09/30 02:45:44;;;;;;;0.70;0.70;;;;;;;15.72;86.67;98300.69;4248081;33;35905;-82
2022/09/30 02:48:17;;;;;;;0.55;0.55;;;;;;;15.24;89.93;98316.06;4260932;33;35335;-83
2022/09/30 02:50:53;;;;;;;0.50;0.50;;;;;;;15.33;89.81;98318.25;4247901;33;34153;-77
2022/09/30 02:53:45;;;;;;;2.65;1.33;;;;;;;15.50;88.83;98314.00;4247926;33;34078;-83
2022/09/30 02:56:17;;;;;;;1.00;1.00;;;;;;;15.85;86.19;98299.22;4251152;33;34956;-79
2022/09/30 02:58:45;;;;;;;0.43;0.43;;;;;;;15.71;87.35;98297.22;4260378;33;34375;-82
2022/09/30 03:01:14;;;;;;;0.43;0.37;;;;;;;15.67;87.09;98303.56;4247814;33;33363;-83
2022/09/30 03:03:52;;;;;;;0.43;0.43;;;;;;;15.77;87.35;98285.59;4248006;33;34786;-83
2022/09/30 03:06:20;;;;;;;0.35;0.35;;;;;;;15.52;89.24;98296.41;4260434;33;34988;-77
2022/09/30 03:08:51;;;;;;;0.90;0.90;;;;;;;15.78;86.62;98283.84;4260428;33;34473;-77
2022/09/30 03:11:22;;;;;;;0.57;0.57;;;;;;;15.54;88.17;98290.16;4247589;33;33669;-78
2022/09/30 03:14:12;;;;;;;1.42;1.33;;;;;;;15.62;88.26;98291.56;4260436;33;34046;-83
2022/09/30 03:16:48;;;;;;;0.70;0.70;;;;;;;15.73;87.06;98284.03;4255956;33;35066;-82
2022/09/30 03:19:22;;;;;;;0.45;0.45;;;;;;;15.93;85.55;98283.06;4261477;33;34411;-82
2022/09/30 03:22:06;;;;;;;0.65;0.62;;;;;;;15.97;85.82;98287.25;4262337;33;34151;-77
2022/09/30 03:24:38;;;;;;;0.73;0.73;;;;;;;15.72;87.32;98293.69;4249684;33;34001;-83
2022/09/30 03:27:24;;;;;;;0.85;0.77;;;;;;;15.70;87.17;98306.00;4262317;33;35030;-79
2022/09/30 03:30:08;;;;;;;1.55;1.40;;;;;;;15.72;87.25;98314.69;4262343;33;34511;-82
2022/09/30 03:32:57;;;;;;;0.95;0.90;;;;;;;15.82;87.08;98314.25;4249510;33;34218;-79
2022/09/30 03:35:31;;;;;;;1.42;1.40;;;;;;;15.90;87.08;98309.47;4262344;33;34015;-82
2022/09/30 03:38:28;;;;;;;1.62;1.52;;;;;;;15.59;89.15;98308.31;4262303;33;35037;-81
2022/09/30 03:41:26;;;;;;;0.65;0.65;;;;;;;16.05;87.20;98306.09;4249559;33;34934;-76
2022/09/30 03:44:39;;;;;;;0.70;0.70;;;;;;;16.01;87.33;98307.19;4250641;33;33405;-80
2022/09/30 03:47:12;;;;;;;21.12;3.35;;;;;;;15.76;88.45;98306.66;4260103;33;33891;-77
2022/09/30 03:49:53;;;;;;;0.30;0.30;;;;;;;15.81;88.72;98310.81;4249481;33;36007;-77
2022/09/30 03:52:23;;;;;;;0.30;0.30;;;;;;;15.25;91.69;98315.16;4249437;33;34376;-80
2022/09/30 03:54:53;;;;;;;1.55;1.15;;;;;;;15.68;89.70;98307.84;4249288;33;34184;-79
2022/09/30 03:57:21;;;;;;;2.28;2.08;;;;;;;15.73;88.92;98311.13;4249139;33;34673;-79
2022/09/30 03:59:49;;;;;;;1.25;1.15;;;;;;;15.95;88.36;98315.34;4249413;33;35220;-76
2022/09/30 04:02:17;;;;;;;0.60;0.60;;;;;;;15.80;87.93;98311.72;4249346;33;35312;-76
2022/09/30 04:04:45;;;;;;;0.80;0.80;;;;;;;16.04;86.80;98308.78;4262416;33;34481;-77
2022/09/30 04:07:13;;;;;;;0.50;0.50;;;;;;;15.89;87.66;98307.78;4262027;33;34010;-80
2022/09/30 04:09:41;;;;;;;1.35;1.25;;;;;;;15.62;89.34;98317.78;4262130;33;35633;-79
2022/09/30 04:12:09;;;;;;;0.88;0.70;;;;;;;15.88;87.19;98314.81;4262041;33;35411;-78
2022/09/30 04:14:37;;;;;;;0.95;0.45;;;;;;;15.91;87.87;98314.66;4262102;33;33221;-76
2022/09/30 04:17:05;;;;;;;1.17;0.93;;;;;;;16.10;86.96;98319.00;4262082;33;34129;-80
2022/09/30 04:19:38;;;;;;;0.68;0.68;;;;;;;16.33;84.40;98314.38;4249401;33;35538;-80
2022/09/30 04:22:07;;;;;;;0.57;0.57;;;;;;;15.95;86.90;98315.34;4262119;33;34348;-76
2022/09/30 04:24:35;;;;;;;0.40;0.40;;;;;;;15.35;90.25;98318.19;4249224;33;33784;-78
2022/09/30 04:27:03;;;;;;;0.80;0.80;;;;;;;15.53;89.39;98325.19;4261955;33;33774;-80
2022/09/30 04:29:31;;;;;;;0.55;0.55;;;;;;;15.69;88.57;98320.06;4261831;33;35064;-80
2022/09/30 04:31:59;;;;;;;0.65;0.65;;;;;;;15.57;89.97;98325.91;4261440;33;34623;-79
2022/09/30 04:34:27;;;;;;;1.15;0.80;;;;;;;15.69;89.12;98330.56;4243666;33;34386;-79
2022/09/30 04:36:55;;;;;;;0.62;0.62;;;;;;;15.44;90.65;98335.25;4261954;33;33895;-76
2022/09/30 04:39:23;;;;;;;0.60;0.60;;;;;;;15.49;90.35;98344.63;4261912;33;35068;-80
2022/09/30 04:41:52;;;;;;;0.52;0.52;;;;;;;15.77;89.29;98348.59;4249096;33;34424;-79
2022/09/30 04:44:21;;;;;;;1.00;1.00;;;;;;;15.67;89.30;98357.78;4256828;33;166658;-78
2022/09/30 04:46:50;;;;;;;1.50;1.40;;;;;;;15.75;88.75;98357.47;4249240;33;34877;-80
2022/09/30 04:49:18;;;;;;;0.57;0.57;;;;;;;15.58;88.83;98361.69;4249168;33;35004;-76
2022/09/30 04:51:45;;;;;;;0.88;0.88;;;;;;;15.90;87.73;98359.34;4261617;33;34551;-77
2022/09/30 04:54:15;;;;;;;0.88;0.88;;;;;;;16.00;87.60;98359.78;4262082;33;34425;-80
2022/09/30 04:56:43;;;;;;;1.23;1.12;;;;;;;15.91;87.62;98359.28;4261910;33;33819;-81
2022/09/30 04:59:11;;;;;;;0.82;0.80;;;;;;;16.05;87.01;98358.62;4249032;33;35039;-81
2022/09/30 05:01:41;;;;;;;0.90;0.90;;;;;;;16.31;85.55;98361.75;4262198;33;34060;-78
2022/09/30 05:04:11;;;;;;;1.83;1.52;;;;;;;15.87;87.98;98357.75;4257857;33;34168;-77
2022/09/30 05:06:39;;;;;;;0.40;0.40;;;;;;;15.48;91.28;98360.44;4248863;33;34626;-76
2022/09/30 05:09:08;;;;;;;1.92;0.77;;;;;;;16.14;87.14;98361.72;4248522;33;35723;-76
2022/09/30 05:11:39;;;;;;;1.10;0.85;;;;;;;16.06;87.97;98370.00;4261520;33;34341;-77
2022/09/30 05:14:08;;;;;;;2.17;1.98;;;;;;;15.76;88.79;98367.03;4261587;33;34125;-76
2022/09/30 05:16:38;;;;;;;0.52;0.52;;;;;;;16.19;86.87;98370.22;4248790;33;33915;-76
2022/09/30 05:19:07;;;;;;;1.85;1.50;;;;;;;15.87;88.50;98365.62;4261568;33;35995;-76
2022/09/30 05:21:36;;;;;;;0.62;0.62;;;;;;;15.97;88.27;98366.03;4248718;33;34536;-77
2022/09/30 05:24:03;;;;;;;2.95;1.87;;;;;;;16.11;87.24;98374.09;4261557;33;33565;-76
2022/09/30 05:26:32;;;;;;;1.65;1.27;;;;;;;15.90;89.13;98370.72;4261620;33;33986;-75
2022/09/30 05:29:00;;;;;;;2.50;1.83;;;;;;;16.04;87.91;98377.94;4261434;33;35949;-80
2022/09/30 05:31:28;;;;;;;0.85;0.85;;;;;;;16.01;88.37;98372.81;4261310;33;35291;-76
2022/09/30 05:33:57;;;;;;;0.90;0.90;;;;;;;16.22;86.51;98372.72;4248820;33;33459;-76
2022/09/30 05:36:25;;;;;;;1.12;1.12;;;;;;;15.91;88.03;98376.81;4255904;33;34102;-75
2022/09/30 05:38:53;;;;;;;1.73;1.62;;;;;;;15.97;88.25;98376.53;4261372;33;35138;-76
2022/09/30 05:41:23;;;;;;;2.00;0.80;;;;;;;15.96;88.05;98380.06;4248131;33;34333;-75
2022/09/30 05:43:51;;;;;;;1.55;1.45;;;;;;;15.93;88.25;98388.09;4247599;33;32766;-76
2022/09/30 05:46:20;;;;;;;0.30;0.30;;;;;;;16.20;86.57;98382.41;4261252;33;33871;-79
2022/09/30 05:48:53;;;;;;;0.90;0.90;;;;;;;15.97;87.93;98379.16;4261206;33;35106;-77
2022/09/30 05:51:22;;;;;;;1.75;1.65;;;;;;;15.72;90.29;98388.19;4261181;33;34890;-78
2022/09/30 05:53:50;;;;;;;1.12;1.05;;;;;;;15.75;90.31;98386.34;4261215;33;33436;-78
2022/09/30 05:56:21;;;;;;;0.98;0.98;;;;;;;16.25;88.16;98386.56;4248593;33;33848;-81
2022/09/30 05:58:51;;;;;;;1.80;1.65;;;;;;;16.29;86.81;98387.25;4247909;33;34171;-77
2022/09/30 06:01:18;;;;;;;2.10;1.50;;;;;;;16.19;86.81;98392.09;4261060;33;34506;-77
2022/09/30 06:03:48;;;;;;;1.52;1.42;;;;;;;16.31;86.56;98390.63;4261442;33;34141;-77
2022/09/30 06:06:18;;;;;;;1.00;1.00;;;;;;;16.26;86.67;98392.63;4261083;33;33853;-79
2022/09/30 06:08:47;;;;;;;1.10;1.08;;;;;;;15.93;88.53;98398.59;4248317;33;35034;-85
2022/09/30 06:11:22;;;;;;;1.17;1.17;;;;;;;16.43;86.20;98400.53;4260922;33;35149;-86
2022/09/30 06:13:51;;;;;;;1.52;1.42;;;;;;;16.05;87.31;98398.00;4248701;33;34275;-83
2022/09/30 06:16:22;;;;;;;0.75;0.75;;;;;;;16.19;88.08;98399.13;4260928;33;34690;-80
2022/09/30 06:18:50;;;;;;;1.92;1.42;;;;;;;16.16;86.98;98405.34;4260897;33;35000;-88
2022/09/30 06:21:18;;;;;;;1.17;1.17;;;;;;;15.80;90.03;98411.47;4260790;33;34454;-83
2022/09/30 06:23:50;;;;;;;1.42;0.57;;;;;;;15.84;90.05;98412.16;4260761;33;33264;-85
2022/09/30 06:26:18;;;;;;;1.45;1.35;;;;;;;15.95;90.63;98415.13;4260970;33;33960;-78
2022/09/30 06:28:46;;;;;;;1.42;0.98;;;;;;;15.92;89.67;98417.91;4260854;33;35064;-78
2022/09/30 06:31:14;;;;;;;0.30;0.30;;;;;;;15.89;90.27;98415.44;4248138;33;34627;-78
2022/09/30 06:33:42;;;;;;;0.85;0.85;;;;;;;16.19;89.41;98417.50;4260869;33;33528;-78
2022/09/30 06:36:10;;;;;;;0.40;0.40;;;;;;;15.97;89.24;98415.91;4260907;33;33956;-78
2022/09/30 06:38:38;;;;;;;0.60;0.60;;;;;;;16.37;87.51;98416.59;4261069;33;35055;-78
2022/09/30 06:41:07;;;;;;;1.60;1.02;;;;;;;16.52;86.07;98424.66;4260763;33;34524;-78
2022/09/30 06:43:35;;;;;;;1.85;1.33;;;;;;;16.24;88.23;98426.03;4260786;33;33551;-79
2022/09/30 06:46:24;;;;;;;0.73;0.73;;;;;;;16.47;86.36;98423.09;4261145;33;34775;-79
2022/09/30 06:48:57;;;;;;;0.55;0.55;;;;;;;16.18;88.14;98431.56;4248380;33;35035;-78
2022/09/30 06:51:40;;;;;;;0.60;0.60;;;;;;;16.32;87.43;98434.34;4249490;33;34545;-78
2022/09/30 06:54:09;;;;;;;0.65;0.65;;;;;;;16.57;86.09;98431.41;4261653;33;33267;-78
2022/09/30 06:56:38;;;;;;;0.62;0.62;;;;;;;16.43;87.56;98445.22;4262384;33;33913;-79
2022/09/30 06:59:06;;;;;;;0.40;0.40;;;;;;;16.69;86.50;98443.06;4249539;33;35910;-80
2022/09/30 07:01:34;;;;;;;0.70;0.70;;;;;;;16.87;84.63;98449.19;4249873;33;35201;-79
2022/09/30 07:04:08;;;;;;;0.30;0.30;;;;;;;16.58;86.84;98451.47;4262489;33;33528;-79
2022/09/30 07:06:37;;;;;;;0.47;0.47;;;;;;;16.66;86.86;98449.31;4250430;33;33912;-79
2022/09/30 07:09:05;;;;;;;1.02;1.02;;;;;;;16.43;87.42;98450.47;4262291;33;35069;-80
2022/09/30 07:11:35;;;;;;;0.43;0.43;;;;;;;16.56;87.65;98448.06;4262317;33;34509;-80
2022/09/30 07:14:05;;;;;;;0.50;0.50;;;;;;;16.72;86.30;98456.06;4262408;33;33411;-79
2022/09/30 07:16:33;;;;;;;0.50;0.50;;;;;;;16.42;87.56;98461.06;4249632;33;34761;-80
2022/09/30 07:19:02;;;;;;;1.20;1.20;;;;;;;17.01;84.18;98461.63;4262343;33;34796;-79
2022/09/30 07:21:31;;;;;;;0.73;0.73;;;;;;;16.72;85.47;98460.47;4262209;33;34484;-79
2022/09/30 07:23:59;;;;;;;2.05;1.95;;;;;;;16.43;87.63;98460.97;4249548;33;33622;-79
2022/09/30 07:26:27;;;;;;;6.30;3.30;;;;;;;16.64;87.05;98471.34;4262296;33;33836;-79
2022/09/30 07:28:56;;;;;;;2.00;1.37;;;;;;;16.59;87.44;98473.34;4249507;33;35821;-80
2022/09/30 07:31:25;;;;;;;1.12;0.82;;;;;;;16.44;88.54;98483.69;4262313;33;34468;-79
2022/09/30 07:34:05;;;;;;;0.70;0.70;;;;;;;16.51;87.97;98480.78;4262354;33;33398;-79
2022/09/30 07:36:36;;;;;;;1.35;1.25;;;;;;;16.33;88.86;98488.62;4249721;33;33539;-80
2022/09/30 07:39:07;;;;;;;0.65;0.65;;;;;;;16.45;88.78;98488.03;4262304;33;35794;-80
2022/09/30 07:41:37;;;;;;;0.57;0.57;;;;;;;16.20;89.70;98482.22;4249482;33;34232;-80
2022/09/30 07:44:10;;;;;;;0.95;0.95;;;;;;;16.30;88.90;98491.37;4262312;33;33370;-80
2022/09/30 07:46:39;;;;;;;1.42;1.33;;;;;;;16.19;89.73;98491.91;4249547;33;33922;-79
2022/09/30 07:49:13;;;;;;;1.80;1.23;;;;;;;16.33;89.12;98491.25;4262083;33;35088;-79
2022/09/30 07:51:44;;;;;;;2.05;1.77;;;;;;;16.31;89.21;98490.47;4249495;33;34356;-80
2022/09/30 07:54:18;;;;;;;1.85;1.30;;;;;;;16.79;86.83;98499.50;4249522;33;34214;-80
2022/09/30 07:56:46;;;;;;;1.10;1.00;;;;;;;16.45;88.59;98503.78;4249430;33;34028;-80
2022/09/30 07:59:37;;;;;;;2.10;0.98;;;;;;;16.58;87.76;98503.19;4251547;33;34741;-84
2022/09/30 08:02:19;;;;;;;1.60;1.50;;;;;;;16.49;89.26;98505.34;4239762;33;34345;-84
2022/09/30 08:04:53;;;;;;;0.60;0.60;;;;;;;16.03;90.38;98512.78;4249315;33;33033;-81
2022/09/30 08:07:23;;;;;;;0.32;0.32;;;;;;;15.90;92.72;98516.88;4262205;33;34762;-80
2022/09/30 08:09:52;;;;;;;1.75;1.65;;;;;;;16.31;91.41;98511.50;4261869;33;35817;-79
2022/09/30 08:12:23;;;;;;;2.40;1.48;;;;;;;16.06;92.41;98512.63;4261880;33;34914;-79
2022/09/30 08:14:52;;;;;;;1.10;1.10;;;;;;;16.38;90.09;98519.94;4261967;33;34179;-84
2022/09/30 08:17:22;;;;;;;0.60;0.60;;;;;;;15.43;95.93;98527.72;4249204;33;34007;-85
2022/09/30 08:19:52;;;;;;;0.60;0.60;;;;;;;15.42;96.72;98531.25;4261784;33;35074;-82
2022/09/30 08:22:22;;;;;;;1.05;1.05;;;;;;;15.75;96.75;98528.09;4261806;33;34526;-81
2022/09/30 08:24:54;;;;;;;1.87;1.77;;;;;;;15.90;94.82;98536.13;4261801;33;33456;-81
2022/09/30 08:27:21;;;;;;;0.80;0.80;;;;;;;16.15;93.26;98542.00;4249009;33;33503;-82
2022/09/30 08:29:50;;;;;;;0.52;0.52;;;;;;;15.50;97.14;98540.47;4261732;33;34916;-83
2022/09/30 08:32:25;;;;;;;3.70;1.17;;;;;;;15.58;97.68;98552.41;4261817;33;34520;-81
2022/09/30 08:34:53;;;;;;;1.35;1.08;;;;;;;15.90;97.16;98553.63;4249013;33;33466;-81
2022/09/30 08:37:22;;;;;;;1.42;1.33;;;;;;;15.66;98.43;98552.94;4248994;33;33907;-77
2022/09/30 08:39:50;;;;;;;1.73;1.37;;;;;;;15.81;95.75;98554.06;4261706;33;35753;-79
2022/09/30 08:42:50;;;;;;;2.25;2.05;;;;;;;15.81;96.30;98569.81;4261750;33;34333;-78
2022/09/30 08:45:33;;;;;;;0.57;0.55;;;;;;;15.99;95.49;98568.13;4249794;33;33558;-83
2022/09/30 08:48:20;;;;;;;0.40;0.40;;;;;;;15.47;97.14;98576.50;4261667;33;33032;-81
2022/09/30 08:51:00;;;;;;;2.87;1.00;;;;;;;16.01;94.99;98582.91;4248771;33;34380;-79
2022/09/30 08:53:33;;;;;;;0.62;0.62;;;;;;;15.52;98.50;98579.78;4261774;33;35365;-79
2022/09/30 08:56:03;;;;;;;0.90;0.90;;;;;;;15.83;97.66;98581.06;4249232;33;34330;-75
2022/09/30 08:58:34;;;;;;;1.00;0.95;;;;;;;15.91;96.48;98581.59;4261519;33;34629;-77
2022/09/30 09:01:12;;;;;;;0.88;0.88;;;;;;;16.01;95.51;98575.03;4261738;33;35101;-80
2022/09/30 09:03:40;;;;;;;1.48;1.37;;;;;;;16.15;95.92;98584.03;4249073;33;34360;-76
2022/09/30 09:06:20;;;;;;;0.70;0.70;;;;;;;16.69;93.59;98579.75;4249003;33;34432;-76
2022/09/30 09:09:13;;;;;;;1.05;0.98;;;;;;;16.30;94.55;98580.72;4248971;33;33945;-76
2022/09/30 09:11:47;;;;;;;1.45;1.35;;;;;;;16.51;95.72;98584.09;4257513;33;36056;-76
2022/09/30 09:15:03;;;;;;;1.33;1.30;;;;;;;16.65;94.03;98591.34;4261995;33;35280;-75
2022/09/30 09:17:39;;;;;;;0.90;0.90;;;;;;;17.01;90.67;98590.50;4252834;33;34408;-76
2022/09/30 09:20:19;;;;;;;1.87;1.48;;;;;;;16.94;90.02;98589.09;4261790;33;34729;-76
2022/09/30 09:22:49;;;;;;;1.30;1.20;;;;;;;16.93;89.30;98597.94;4249116;33;35076;-80
2022/09/30 09:25:20;;;;;;;0.65;0.65;;;;;;;16.78;91.06;98602.12;4248837;33;34735;-77
2022/09/30 09:27:54;;;;;;;0.35;0.35;;;;;;;16.87;90.62;98605.19;4249129;33;33455;-76
2022/09/30 09:30:24;;;;;;;0.30;0.30;;;;;;;17.10;89.86;98607.63;4261603;33;34524;-77
2022/09/30 09:32:56;;;;;;;0.52;0.52;;;;;;;16.89;92.32;98617.41;4248895;33;35777;-76
2022/09/30 09:35:35;;;;;;;0.40;0.40;;;;;;;16.98;90.54;98616.97;4249005;33;35181;-78
2022/09/30 09:38:34;;;;;;;0.30;0.30;;;;;;;17.35;88.46;98628.31;4248903;33;34321;-76
2022/09/30 09:41:08;;;;;;;1.83;1.30;;;;;;;16.97;90.47;98620.53;4261499;33;34091;-76
2022/09/30 09:43:59;;;;;;;0.45;0.45;;;;;;;17.39;87.23;98627.25;4261605;33;35049;-76
2022/09/30 09:46:31;;;;;;;0.20;0.20;;;;;;;16.80;91.38;98624.78;4255963;33;35142;-77
2022/09/30 09:49:12;;;;;;;0.40;0.40;;;;;;;16.99;90.03;98618.66;4248751;33;33327;-77
2022/09/30 09:51:46;;;;;;;0.50;0.50;;;;;;;17.17;89.71;98633.56;4261426;33;33968;-76
2022/09/30 09:54:16;;;;;;;0.43;0.43;;;;;;;17.00;90.53;98631.75;4249033;33;35155;-75
2022/09/30 09:56:44;;;;;;;0.88;0.88;;;;;;;17.04;90.18;98632.44;4248592;33;35032;-77
2022/09/30 09:59:16;;;;;;;1.10;1.02;;;;;;;17.09;89.79;98646.25;4261258;33;34354;-76
2022/09/30 10:01:50;;;;;;;0.50;0.50;;;;;;;17.46;89.14;98641.78;4248924;33;34046;-76
2022/09/30 10:04:29;;;;;;;0.60;0.60;;;;;;;17.70;87.67;98636.19;4261587;33;35076;-76
2022/09/30 10:07:11;;;;;;;0.50;0.50;;;;;;;17.79;85.99;98635.75;4248797;33;34344;-75
2022/09/30 10:09:41;;;;;;;0.45;0.45;;;;;;;17.25;90.27;98636.66;4236690;33;33658;-76
2022/09/30 10:12:12;;;;;;;0.15;0.15;;;;;;;17.52;88.57;98644.09;4248707;33;34036;-76
2022/09/30 10:14:50;;;;;;;0.32;0.32;;;;;;;17.85;88.30;98640.69;4261178;33;35051;-77
2022/09/30 10:17:29;;;;;;;0.30;0.30;;;;;;;17.89;89.17;98642.25;4248370;33;34580;-77
2022/09/30 10:20:12;;;;;;;0.28;0.28;;;;;;;17.95;87.24;98652.47;4248510;33;34234;-76
2022/09/30 10:22:41;;;;;;;0.35;0.35;;;;;;;17.71;87.57;98656.34;4261104;33;34701;-75
2022/09/30 10:25:20;;;;;;;0.30;0.30;;;;;;;17.73;88.85;98662.38;4248353;33;35078;-76
2022/09/30 10:27:52;;;;;;;0.28;0.28;;;;;;;17.98;88.27;98654.97;4248304;33;34322;-76
2022/09/30 10:30:32;;;;;;;0.30;0.30;;;;;;;18.24;87.43;98659.78;4249787;33;33449;-76
2022/09/30 10:33:03;;;;;;;0.20;0.20;;;;;;;18.38;85.77;98671.28;4262714;33;34687;-76
2022/09/30 10:35:31;;;;;;;0.20;0.20;;;;;;;18.32;85.56;98670.78;4250074;33;36015;-76
2022/09/30 10:37:59;;;;;;;0.35;0.35;;;;;;;18.07;88.57;98671.19;4262624;33;35244;-77
2022/09/30 10:40:28;;;;;;;0.32;0.32;;;;;;;18.55;84.57;98666.91;4249930;33;34355;-76
2022/09/30 10:42:57;;;;;;;0.60;0.60;;;;;;;18.74;81.88;98675.53;4249859;33;34785;-76
2022/09/30 10:45:33;;;;;;;0.20;0.20;;;;;;;18.72;82.28;98687.94;4262696;33;36211;-76
2022/09/30 10:48:05;;;;;;;0.20;0.20;;;;;;;18.56;84.11;98684.41;4249873;33;35216;-76
2022/09/30 10:50:33;;;;;;;0.43;0.43;;;;;;;18.83;82.90;98686.50;4249775;33;33727;-77
2022/09/30 10:53:04;;;;;;;0.47;0.45;;;;;;;18.77;83.61;98680.59;4262565;33;33740;-77
2022/09/30 10:55:34;;;;;;;0.75;0.60;;;;;;;18.97;78.69;98689.25;4249711;33;35859;-77
2022/09/30 10:58:22;;;;;;;0.30;0.30;;;;;;;19.08;77.66;98686.88;4262323;33;34477;-76
2022/09/30 11:01:18;;;;;;;0.50;0.40;;;;;;;18.88;79.58;98700.31;4262529;33;34362;-76
2022/09/30 11:04:10;;;;;;;0.20;0.20;;;;;;;18.56;82.85;98700.22;4253233;33;33715;-76
2022/09/30 11:06:39;;;;;;;0.20;0.20;;;;;;;18.76;81.05;98721.13;4249921;33;34977;-76
2022/09/30 11:09:21;;;;;;;0.20;0.20;;;;;;;19.01;80.64;98727.72;4249657;33;34664;-76
2022/09/30 11:11:55;;;;;;;0.30;0.30;;;;;;;19.22;81.60;98738.00;4249798;33;33436;-76
2022/09/30 11:14:44;;;;;;;0.30;0.30;;;;;;;19.10;83.74;98737.75;4262468;33;34797;-76
2022/09/30 11:17:15;;;;;;;0.32;0.32;;;;;;;19.40;81.45;98754.62;4262376;33;35924;-78
2022/09/30 11:20:14;;;;;;;0.20;0.20;;;;;;;19.46;78.90;98760.38;4262453;33;35395;-76
2022/09/30 11:23:10;;;;;;;0.70;0.70;;;;;;;19.66;76.32;98772.47;4262430;33;33546;-76
2022/09/30 11:26:00;;;;;;;0.43;0.43;;;;;;;19.65;76.94;98777.84;4255363;33;34028;-76
2022/09/30 11:28:54;;;;;;;0.20;0.20;;;;;;;20.13;76.68;98775.13;4262375;33;35792;-76
2022/09/30 11:31:28;;;;;;;0.20;0.20;;;;;;;19.82;77.31;98787.50;4262402;33;34390;-76
2022/09/30 11:34:17;;;;;;;0.20;0.20;;;;;;;19.78;76.08;98785.94;4262514;33;33338;-76
2022/09/30 11:36:57;;;;;;;0.20;0.20;;;;;;;19.70;75.17;98789.00;4249744;33;33943;-76
2022/09/30 11:39:48;;;;;;;0.20;0.20;;;;;;;19.91;77.08;98799.28;4249502;33;34952;-76
2022/09/30 11:42:29;;;;;;;0.73;0.73;;;;;;;19.76;75.96;98801.88;4258488;33;34474;-76
2022/09/30 11:45:08;;;;;;;0.20;0.20;;;;;;;19.99;73.36;98805.00;4262427;33;34116;-76
2022/09/30 11:48:10;;;;;;;0.30;0.30;;;;;;;19.95;74.14;98808.75;4249559;33;33840;-76
2022/09/30 11:50:57;;;;;;;0.25;0.25;;;;;;;19.81;73.97;98807.75;4262268;33;36064;-76
2022/09/30 11:53:32;;;;;;;0.30;0.30;;;;;;;20.12;72.15;98824.50;4256484;33;35248;-76
2022/09/30 11:55:59;;;;;;;0.20;0.20;;;;;;;19.81;74.26;98823.59;4261993;33;33231;-76
2022/09/30 11:58:42;;;;;;;0.25;0.25;;;;;;;19.82;74.16;98825.31;4262005;33;33844;-76
2022/09/30 12:01:32;;;;;;;0.20;0.20;;;;;;;20.05;74.15;98834.56;4249502;33;35220;-76
2022/09/30 12:04:05;;;;;;;0.20;0.20;;;;;;;20.60;71.94;98832.25;4249600;33;35190;-76
2022/09/30 12:06:36;;;;;;;0.10;0.10;;;;;;;20.87;74.75;98835.03;4249471;33;33410;-77
2022/09/30 12:09:19;;;;;;;0.20;0.20;;;;;;;21.28;72.75;98839.56;4249394;33;34643;-76